more information


Thunder radar more information blitzortung!


Rain radar more information rain snow radar


Visit our other weather sites:

Template documentation
and downloads

And another site


Nearby METAR Reports

   
EHVK - Volkel Rnlafb, Netherlands
Distance from station: SW 11 mi
Updated: Jan 20 2020 4:41 am
Mist, Overcast  
Mist, Overcast  
   Wind: varies 2 mph
Wind: varies 2 mph
Temperature: 34°F
Dew Point: 34°F
Humidity: 100%
Barometer: 30.95 inHg
Clouds: Overcast
Visibility: 1 mi
Cloud details: Partly Cloudy,
Overcast 3353 m
EHVK 200941Z AUTO VRB02KT 1000 R24R/2700N BR SCT000 OVC110 01/01 Q1048 RED VRB02KT 1000 BR NSC TEMPO 2500 BR
EDLV - Niederrhein, Germany
Distance from station: SE 15 mi
Updated: Jan 20 2020 4:20 am
Fog  
Fog  
   Wind: South 4 mph
Wind: South 4 mph
Temperature: 32°F
Wind Chill: 28°F
Dew Point: 32°F
Humidity: 100%
Barometer: 30.95 inHg
Visibility: 0 mi
Cloud details: Overcast
EDLV 200920Z 18003KT 0400 R27/0600N FG VV/// 00/M00 Q1048
EHDL - Deelen Rnlafb, Netherlands
Distance from station: N 22 mi
Updated: Jan 20 2020 4:25 am
Mist, Overcast  
Mist, Overcast  
   Wind: South 1 mph
Wind: South 1 mph
Temperature: 34°F
Dew Point: 34°F
Humidity: 100%
Barometer: 30.92 inHg
Clouds: Overcast
Visibility: 1 mi
Cloud details: Overcast 3658 m
EHDL 200925Z AUTO 17001KT 1400 BR OVC120 01/01 Q1047 AMB
EHEH - Eindhoven Rnlafb, Netherlands
Distance from station: SW 30 mi
Updated: Jan 20 2020 4:41 am
Fog, Overcast  
Fog, Overcast  
   Wind: South 2 mph
Wind: South 2 mph
Temperature: 32°F
Dew Point: 32°F
Humidity: 100%
Barometer: 30.95 inHg
Clouds: Overcast
Visibility: 0 mi
Cloud details: Overcast
EHEH 200941Z AUTO 17002KT 0500 R21/0550N FG OVC000 00/00 Q1048 RED VRB02KT 0500 FG OVC000 BECMG 0800 BKN001 BKN120
EHGR - Gilze-Rijen Rnla, Netherlands
Distance from station: WSW 43 mi
Updated: Jan 20 2020 4:38 am
Mist, Overcast  
Mist, Overcast  
   Wind: varies 2 mph
Wind: varies 2 mph
Temperature: 34°F
Dew Point: 34°F
Humidity: 100%
Barometer: 30.95 inHg
Clouds: Overcast
Visibility: 3 mi
Cloud details: Overcast 3658 m
EHGR 200938Z AUTO VRB02KT 4400 BR OVC120 01/01 Q1048 GRN VRB02KT 4500 BR NSC
EBBL - Kleine-Brogel(Ba, Belgium
Distance from station: SSW 44 mi
Updated: Jan 20 2020 4:25 am
Fog, Mostly Cloudy  
Fog, Mostly Cloudy  
   Wind: varies 2 mph
Wind: varies 2 mph
Temperature: 34°F
Dew Point: 34°F
Humidity: 100%
Barometer: 30.95 inHg
Clouds: Mostly Cloudy
Visibility: 0 mi
Cloud details: Mostly Cloudy 61 m
EBBL 200925Z VRB02KT 0700 FG BKN002 01/01 Q1048 RED RED BECMG AMB

Script developed by  Saratoga-weather.org Adapted for the template by  Weerstation Leuven

You find our weather info also at:

WeatherCloud

Weather Underground

Citizen Weather Observer Program (CWOP)

Equipment we use:

Weather-station
Davis VP2

Weather-program
Cumulus

Davis VP2

Cumulus